Weather observations for the past three days for
MANDAN
Imperial (Metric)
Date Time (cdt) Wind (mph) Vis. (mi.) Weather Sky Cond. Temperature (ºF) Relative Humidity Wind Chill (°F) Heat Index (°F) Pressure Precipitation (in)
Air Dwpt 6 hour altimeter (in) sea level (mb) 1 hr 3 hr 6 hr
Max. Min.
03 12:55 NW 13 G 23 10.00 Fair CLR 68 37.4 33% 29.82 0.0
03 12:35 W 15 G 25 10.00 Fair CLR 66.2 37.4 35% 29.84 0.0
03 12:15 W 14 10.00 Fair CLR 66.2 37.4 35% 29.85 0.0
03 11:55 SW 12 10.00 Fair CLR 64.4 37.4 37% 29.86 0.0
03 11:35 SW 14 G 22 10.00 Fair CLR 64.4 37.4 37% 29.87 0.0
03 11:15 W 15 10.00 Fair CLR 64.4 37.4 37% 29.88 0.0
03 10:55 W 16 10.00 Fair CLR 62.6 35.6 37% 29.89 0.0
03 10:35 W 16 10.00 Fair CLR 60.8 37.4 42% 29.89 0.0
03 10:15 W 14 10.00 Fair CLR 59 37.4 45% 29.9 0.0
03 09:55 SW 13 10.00 Fair CLR 57.2 35.6 44% 29.9 0.0
03 09:35 W 12 10.00 Fair CLR 55.4 35.6 47% 29.91 0.0
03 09:15 Vrbl 7 10.00 Fair CLR 51.8 37.4 58% 29.92 0.0
03 08:55 SW 6 10.00 Fair CLR 48.2 35.6 62% 46 29.93 0.0
03 08:35 W 7 10.00 Fair CLR 44.6 33.8 66% 41 29.93 0.0
03 08:15 W 8 10.00 Fair CLR 42.8 33.8 71% 39 29.93 0.0
03 07:55 W 8 10.00 Fair CLR 41 32 70% 36 29.93 0.0
03 07:35 W 10 10.00 Fair CLR 37.4 32 81% 31 29.92 0.0
03 07:15 W 7 7.00 Fair CLR 35.6 32 87% 31 29.92 0.0
03 06:55 W 9 10.00 Fair CLR 33.8 30.2 87% 27 29.93 0.0
03 06:35 W 8 10.00 Fair CLR 33.8 30.2 87% 28 29.93 0.0
03 06:15 W 10 10.00 Fair CLR 33.8 30.2 87% 26 29.93 0.0
03 05:55 W 9 10.00 Fair CLR 32 30.2 93% 25 29.93 0.0
03 05:35 W 9 10.00 Fair CLR 32 30.2 93% 25 29.93 0.0
03 05:15 W 8 10.00 Fair CLR 33.8 28.4 81% 28 29.94 0.0
03 04:55 W 9 10.00 Fair CLR 33.8 28.4 81% 27 29.94 0.0
03 04:35 NW 8 10.00 Fair CLR 39.2 28.4 65% 34 29.93 0.0
03 04:15 NW 9 10.00 Fair CLR 42.8 30.2 61% 38 29.93 0.0
03 03:55 NW 10 10.00 Fair CLR 42.8 30.2 61% 38 29.93 0.0
03 03:35 NW 10 10.00 Fair CLR 42.8 30.2 61% 38 29.93 0.0
03 03:15 NW 10 10.00 Fair CLR 42.8 30.2 61% 38 29.93 0.0
03 02:55 N 12 10.00 Fair CLR 44.6 32 61% 39 29.93 0.0
03 02:35 N 12 10.00 Fair CLR 46.4 32 57% 42 29.93 0.0
03 02:15 N 12 10.00 Fair CLR 46.4 33.8 62% 42 29.93 0.0
03 01:55 N 10 10.00 Fair CLR 46.4 33.8 62% 42 29.93 0.0
03 01:35 N 12 10.00 Fair CLR 46.4 33.8 62% 42 29.93 0.0
03 01:15 N 10 10.00 Fair CLR 48.2 37.4 66% 44 29.93 0.0
03 00:55 NW 8 10.00 Fair CLR 48.2 37.4 66% 45 29.92 0.0
03 00:35 NW 8 10.00 Fair CLR 48.2 39.2 71% 45 29.92 0.0
03 00:15 NW 8 10.00 Fair CLR 48.2 39.2 71% 45 29.91 0.0
02 23:55 NW 7 10.00 Fair CLR 50 39.2 67% 48 29.91 0.0
02 23:35 NW 9 10.00 Partly Cloudy SCT095 51.8 39.2 62% 29.91 0.0
02 23:15 NW 9 10.00 Mostly Cloudy BKN090 51.8 39.2 62% 29.9 0.0
02 22:55 NW 9 10.00 Mostly Cloudy FEW080 BKN100 51.8 39.2 62% 29.9 0.0
02 22:35 NW 9 10.00 Overcast OVC095 53.6 39.2 58% 29.9 0.0
02 22:15 NW 9 10.00 Partly Cloudy SCT095 53.6 39.2 58% 29.89 0.0
02 21:55 NW 9 10.00 Fair CLR 55.4 39.2 55% 29.89 0.0
02 21:35 NW 10 10.00 Fair CLR 57.2 39.2 51% 29.88 0.0
02 21:15 NW 10 10.00 Fair CLR 57.2 39.2 51% 29.87 0.0
02 20:55 NW 14 10.00 Partly Cloudy SCT100 60.8 39.2 45% 29.86 0.0
02 20:35 NW 14 10.00 Mostly Cloudy BKN100 60.8 39.2 45% 29.86 0.0
02 20:15 NW 18 G 24 10.00 A Few Clouds FEW100 62.6 39.2 42% 29.85 0.0
02 19:55 NW 20 G 26 10.00 A Few Clouds FEW095 64.4 39.2 40% 29.84 0.0
02 19:35 NW 23 G 29 10.00 Fair and Breezy CLR 64.4 39.2 40% 29.84 0.0
02 19:15 NW 22 G 29 10.00 Partly Cloudy and Breezy FEW080 SCT090 66.2 39.2 37% 29.84 0.0
02 18:55 NW 21 G 32 10.00 Fair and Breezy CLR 66.2 39.2 37% 29.83 0.0
02 18:35 NW 22 G 35 10.00 Fair and Breezy CLR 68 39.2 35% 29.83 0.0
02 18:15 N 28 10.00 Fair and Windy CLR 68 39.2 35% 29.83 0.0
02 17:55 NW 24 G 31 10.00 Fair and Breezy CLR 68 39.2 35% 29.82 0.0
02 17:35 NW 24 G 36 10.00 Fair and Breezy CLR 69.8 39.2 33% 29.82 0.0
02 17:15 NW 24 10.00 Fair and Breezy CLR 69.8 41 35% 29.82 0.0
02 16:55 NW 29 G 38 10.00 A Few Clouds and Windy FEW120 69.8 39.2 33% 29.82 0.0
02 16:35 NW 26 G 35 10.00 A Few Clouds and Windy FEW120 69.8 39.2 33% 29.82 0.0
02 16:15 NW 21 G 31 10.00 Fair and Breezy CLR 69.8 39.2 33% 29.82 0.0
02 15:55 NW 28 G 33 10.00 Fair and Windy CLR 71.6 39.2 31% 29.83 0.0
02 15:35 NW 22 G 31 10.00 Fair and Breezy CLR 71.6 41 33% 29.83 0.0
02 15:15 NW 25 10.00 Fair and Breezy CLR 71.6 41 33% 29.83 0.0
02 14:55 NW 21 G 31 10.00 Fair and Breezy CLR 71.6 42.8 36% 29.84 0.0
02 14:35 NW 22 G 31 10.00 A Few Clouds and Breezy FEW110 71.6 41 33% 29.85 0.0
02 14:15 NW 20 10.00 Fair CLR 69.8 41 35% 29.85 0.0
02 13:55 N 15 G 28 10.00 A Few Clouds FEW060 FEW080 68 41 38% 29.85 0.0
02 13:35 NW 13 10.00 Fair CLR 68 41 38% 29.86 0.0
02 13:15 NW 14 10.00 A Few Clouds FEW120 64.4 39.2 40% 29.86 0.0
02 12:55 NW 10 G 16 10.00 Partly Cloudy FEW090 SCT120 62.6 39.2 42% 29.87 0.0
02 12:35 W 9 G 20 10.00 Partly Cloudy FEW085 SCT110 62.6 39.2 42% 29.86 0.0
02 12:15 W 13 G 20 10.00 Mostly Cloudy FEW095 BKN120 62.6 39.2 42% 29.87 0.0
02 11:55 W 17 G 28 10.00 Mostly Cloudy BKN120 64.4 39.2 40% 29.89 0.0
02 11:35 W 16 G 24 10.00 Partly Cloudy SCT120 64.4 39.2 40% 29.88 0.0
02 11:15 W 17 10.00 Partly Cloudy SCT120 62.6 37.4 39% 29.89 0.0
02 10:55 SW 16 10.00 Mostly Cloudy BKN110 60.8 37.4 42% 29.89 0.0
02 10:35 SW 18 G 28 10.00 Partly Cloudy SCT110 59 35.6 42% 29.9 0.0
02 10:15 SW 18 G 25 9.00 Partly Cloudy SCT100 59 35.6 42% 29.9 0.0
02 09:55 SW 15 G 21 10.00 Mostly Cloudy BKN100 BKN120 57.2 35.6 44% 29.92 0.0
02 09:35 SW 18 G 25 10.00 Fair CLR 53.6 33.8 47% 29.92 0.0
02 09:15 SW 16 G 28 10.00 Partly Cloudy SCT110 51.8 32 47% 29.93 0.0
02 08:55 SW 18 10.00 Mostly Cloudy BKN110 51.8 32 47% 29.94 0.0
02 08:35 SW 12 10.00 Mostly Cloudy BKN110 50 33.8 54% 46 29.96 0.0
02 08:15 SW 12 10.00 Mostly Cloudy BKN110 48.2 33.8 58% 44 29.98 0.0
02 07:55 SW 13 10.00 Overcast OVC110 46.4 32 57% 41 29.97 0.0
02 07:35 SW 13 10.00 Mostly Cloudy BKN110 44.6 32 61% 39 29.97 0.0
02 07:15 SW 13 10.00 Partly Cloudy SCT110 44.6 30.2 57% 39 29.98 0.0
02 06:55 SW 13 10.00 Fair CLR 44.6 30.2 57% 39 29.99 0.0
02 06:35 SW 14 10.00 Fair CLR 42.8 30.2 61% 36 29.99 0.0
02 06:15 SW 13 10.00 Fair CLR 42.8 30.2 61% 37 30 0.0
02 05:55 SW 10 10.00 Fair CLR 41 30.2 66% 35 30 0.0
02 05:35 SW 9 10.00 Fair CLR 41 30.2 66% 36 30 0.0
02 05:15 SW 9 10.00 Fair CLR 41 30.2 66% 36 30 0.0
02 04:55 SW 9 10.00 Fair CLR 41 30.2 66% 36 30 0.0
02 04:35 SW 12 10.00 Fair CLR 42.8 30.2 61% 37 29.99 0.0
02 04:15 SW 12 10.00 Fair CLR 42.8 30.2 61% 37 30 0.0
02 03:55 SW 12 10.00 Fair CLR 42.8 30.2 61% 37 30.01 0.0
02 03:35 SW 12 10.00 Fair CLR 42.8 30.2 61% 37 30.01 0.0
02 03:15 SW 12 10.00 Fair CLR 41 30.2 66% 35 30.02 0.0
02 02:55 SW 9 10.00 Fair CLR 41 30.2 66% 36 30.03 0.0
02 02:35 SW 10 10.00 Fair CLR 42.8 30.2 61% 38 30.03 0.0
02 02:15 SW 10 10.00 Fair CLR 41 30.2 66% 35 30.04 0.0
02 01:55 SW 10 10.00 Fair CLR 41 30.2 66% 35 30.04 0.0
02 01:35 SW 12 10.00 Fair CLR 41 30.2 66% 35 30.05 0.0
02 01:15 SW 9 10.00 Fair CLR 41 30.2 66% 36 30.05 0.0
02 00:55 SW 9 10.00 Fair CLR 41 30.2 66% 36 30.05 0.0
02 00:35 SW 10 10.00 Fair CLR 41 30.2 66% 35 30.05 0.0
02 00:15 SW 9 10.00 Fair CLR 41 28.4 61% 36 30.06 0.0
01 23:55 SW 9 10.00 Fair CLR 41 30.2 66% 36 30.06 0.0
01 23:35 SW 9 10.00 Fair CLR 42.8 30.2 61% 38 30.06 0.0
01 23:15 SW 9 10.00 Fair CLR 42.8 30.2 61% 38 30.07 0.0
01 22:55 SW 8 10.00 Fair CLR 44.6 30.2 57% 41 30.07 0.0
01 22:35 SW 8 10.00 Fair CLR 46.4 30.2 53% 43 30.07 0.0
01 22:15 SW 8 10.00 Fair CLR 46.4 30.2 53% 43 30.07 0.0
01 21:55 SW 9 10.00 Fair CLR 48.2 30.2 50% 45 30.07 0.0
01 21:35 SW 7 9.00 Fair CLR 50 32 50% 48 30.06 0.0
01 21:15 SW 6 9.00 Fair CLR 51.8 32 47% 30.06 0.0
01 20:55 SW 6 10.00 Fair CLR 55.4 30.2 38% 30.06 0.0
01 20:35 SW 5 9.00 Fair CLR 55.4 32 41% 30.06 0.0
01 20:15 S 5 10.00 Fair CLR 57.2 33.8 41% 30.06 0.0
01 19:55 SW 3 10.00 Fair CLR 59 32 36% 30.06 0.0
01 19:35 NW 5 10.00 Fair CLR 59 32 36% 30.06 0.0
01 19:15 N 5 10.00 Fair CLR 60.8 32 34% 30.07 0.0
01 18:55 N 3 10.00 Fair CLR 57.2 35.6 44% 30.07 0.0
01 18:35 NW 5 10.00 Fair CLR 57.2 33.8 41% 30.07 0.0
01 18:15 Calm 10.00 Fair CLR 59 32 36% 30.07 0.0
01 17:55 N 6 10.00 Fair CLR 59 32 36% 30.07 0.0
01 17:35 N 9 10.00 Fair CLR 60.8 33.8 36% 30.08 0.0
01 17:15 N 9 10.00 Partly Cloudy SCT085 60.8 33.8 36% 30.08 0.0
01 16:55 N 7 10.00 Mostly Cloudy FEW080 BKN090 60.8 33.8 36% 30.08 0.0
01 16:35 Calm 10.00 A Few Clouds FEW090 59 33.8 39% 30.09 0.0
01 16:15 N 12 G 17 10.00 Mostly Cloudy SCT080 BKN090 59 33.8 39% 30.09 0.0
01 15:55 N 10 G 20 10.00 Partly Cloudy FEW070 SCT085 60.8 33.8 36% 30.1 0.0
01 15:35 NE 8 10.00 Mostly Cloudy BKN080 BKN090 59 33.8 39% 30.1 0.0
01 15:15 Calm 10.00 Overcast SCT070 OVC080 57.2 33.8 41% 30.1 0.0
01 14:55 NW 14 10.00 Overcast BKN070 OVC080 57.2 33.8 41% 30.11 0.0
01 14:35 Calm 10.00 Mostly Cloudy BKN070 BKN080 57.2 33.8 41% 30.11 0.0
01 14:15 N 12 10.00 Mostly Cloudy BKN065 BKN080 59 33.8 39% 30.11 0.0
01 13:55 N 10 G 24 10.00 Partly Cloudy SCT065 57.2 33.8 41% 30.11 0.0
01 13:35 Vrbl 6 G 17 10.00 A Few Clouds FEW065 57.2 33.8 41% 30.11 0.0
01 12:55 N 8 10.00 Fair CLR 55.4 33.8 44% 30.12 0.0
01 12:35 N 14 10.00 Fair CLR 55.4 33.8 44% 30.12 0.0
01 12:15 Vrbl 7 10.00 Fair CLR 53.6 33.8 47% 30.12 0.0
01 11:55 N 9 G 15 10.00 Fair CLR 51.8 32 47% 30.12 0.0
01 11:35 NW 8 10.00 Fair CLR 51.8 30.2 44% 30.13 0.0
01 11:15 Vrbl 5 10.00 Fair CLR 50 30.2 47% 49 30.13 0.0
01 10:55 N 7 10.00 Fair CLR 48.2 30.2 50% 46 30.13 0.0
01 10:35 Vrbl 6 10.00 Fair CLR 46.4 28.4 50% 44 30.13 0.0
01 10:15 N 6 10.00 Fair CLR 44.6 28.4 53% 42 30.13 0.0
01 09:55 Calm 10.00 Fair CLR 42.8 28.4 57% 30.13 0.0
01 09:35 NW 5 10.00 Fair CLR 42.8 28.4 57% 41 30.13 0.0
01 09:15 N 5 10.00 Fair CLR 41 28.4 61% 38 30.13 0.0
01 08:55 Calm 10.00 Fair CLR 39.2 28.4 65% 30.13 0.0
01 08:35 Calm 10.00 Partly Cloudy SCT055 35.6 28.4 75% 30.13 0.0
01 08:15 Calm 10.00 Overcast OVC055 33.8 28.4 81% 30.13 0.0
01 07:55 Calm 10.00 Partly Cloudy SCT055 SCT110 32 28.4 87% 30.12 0.0
01 07:35 Calm 9.00 Fair CLR 32 26.6 80% 30.12 0.0
01 07:15 S 5 10.00 Partly Cloudy SCT110 32 26.6 80% 28 30.12 0.0
01 06:55 Calm 9.00 Mostly Cloudy BKN120 30.2 24.8 80% 30.12 0.0
01 06:35 S 5 10.00 Partly Cloudy SCT120 28.4 24.8 86% 24 30.11 0.0
01 06:15 SW 7 10.00 Partly Cloudy SCT120 30.2 24.8 80% 24 30.11 0.0
01 05:55 SW 7 10.00 Fair CLR 28.4 23 80% 22 30.11 0.0
01 05:35 SW 6 10.00 Fair CLR 26.6 23 86% 21 30.11 0.0
01 05:15 SW 7 10.00 Fair CLR 26.6 23 86% 20 30.12 0.0
01 04:55 SW 7 10.00 Fair CLR 28.4 23 80% 22 30.12 0.0
01 04:35 SW 7 10.00 Fair CLR 28.4 23 80% 22 30.12 0.0
01 04:15 SW 7 10.00 Fair CLR 30.2 23 75% 24 30.12 0.0
01 03:55 SW 8 10.00 Fair CLR 30.2 23 75% 23 30.12 0.0
01 03:35 SW 8 10.00 Fair CLR 30.2 23 75% 23 30.12 0.0
01 03:15 SW 8 10.00 Fair CLR 28.4 23 80% 21 30.12 0.0
01 02:55 SW 7 10.00 Fair CLR 28.4 23 80% 22 30.12 0.0
01 02:35 SW 8 10.00 Fair CLR 30.2 23 75% 23 30.12 0.0
01 02:15 SW 5 10.00 Fair CLR 30.2 23 75% 26 30.12 0.0
01 01:55 SW 6 10.00 Fair CLR 28.4 23 80% 23 30.12 0.0
01 01:35 SW 5 10.00 Fair CLR 28.4 23 80% 24 30.12 0.0
01 01:15 Calm 10.00 Fair CLR 32 23 69% 30.12 0.0
01 00:55 S 3 10.00 Fair CLR 33.8 23 65% 30.12 0.0
01 00:35 S 3 10.00 Fair CLR 32 23 69% 30.12 0.0
01 00:15 S 6 10.00 Fair CLR 35.6 24.8 65% 31 30.12 0.0
30 23:55 S 3 10.00 Fair CLR 39.2 24.8 56% 30.12 0.0
30 23:35 E 3 10.00 Fair CLR 41 24.8 53% 30.12 0.0
30 23:15 E 3 10.00 A Few Clouds FEW042 41 24.8 53% 30.12 0.0
30 22:55 E 3 10.00 Partly Cloudy SCT042 39.2 24.8 56% 30.12 0.0
30 22:35 NE 6 10.00 Fair CLR 41 24.8 53% 38 30.12 0.0
30 22:15 NE 5 10.00 Fair CLR 41 24.8 53% 38 30.12 0.0
30 21:55 NE 3 10.00 Fair CLR 41 24.8 53% 30.12 0.0
30 21:35 NE 7 10.00 Fair CLR 41 24.8 53% 37 30.11 0.0
30 21:15 NE 6 10.00 Fair CLR 41 24.8 53% 38 30.1 0.0
30 20:55 N 6 10.00 Fair CLR 41 24.8 53% 38 30.1 0.0
30 20:35 N 7 10.00 Fair CLR 42.8 26.6 53% 39 30.1 0.0
30 20:15 N 8 10.00 Fair CLR 46.4 26.6 46% 43 30.1 0.0
30 19:55 N 6 10.00 Fair CLR 46.4 28.4 50% 44 30.1 0.0
30 19:35 N 10 10.00 Fair CLR 46.4 26.6 46% 42 30.1 0.0
30 19:15 N 10 G 17 10.00 Fair CLR 48.2 26.6 43% 44 30.1 0.0
30 18:55 N 9 10.00 Fair CLR 48.2 26.6 43% 45 30.11 0.0
30 18:35 N 9 10.00 A Few Clouds FEW060 48.2 28.4 46% 45 30.11 0.0
30 18:15 N 7 G 17 10.00 Fair CLR 48.2 28.4 46% 46 30.11 0.0
30 17:55 NE 14 10.00 A Few Clouds FEW055 48.2 28.4 46% 43 30.11 0.0
30 17:35 N 14 10.00 Fair CLR 48.2 28.4 46% 43 30.11 0.0
30 17:15 N 13 G 21 10.00 Fair CLR 48.2 28.4 46% 43 30.12 0.0
30 16:55 NE 16 10.00 Fair CLR 48.2 28.4 46% 43 30.12 0.0
30 16:35 N 8 G 16 10.00 Fair CLR 46.4 28.4 50% 43 30.12 0.0
30 16:15 N 12 G 20 10.00 A Few Clouds FEW049 46.4 28.4 50% 42 30.12 0.0
30 15:55 NE 13 G 21 10.00 Fair CLR 46.4 28.4 50% 41 30.12 0.0
30 15:35 N 16 G 23 10.00 A Few Clouds FEW047 46.4 28.4 50% 40 30.13 0.0
30 15:15 NE 14 G 25 10.00 Mostly Cloudy BKN048 46.4 28.4 50% 41 30.13 0.0
30 14:55 N 14 G 24 10.00 Mostly Cloudy BKN049 46.4 28.4 50% 41 30.13 0.0
30 14:35 N 20 10.00 Mostly Cloudy BKN049 46.4 28.4 50% 40 30.12 0.0
30 14:15 N 21 G 30 10.00 A Few Clouds and Breezy FEW049 48.2 28.4 46% 42 30.12 0.0
30 13:55 N 18 G 25 10.00 Mostly Cloudy BKN050 46.4 28.4 50% 40 30.12 0.0
30 13:35 N 24 10.00 Partly Cloudy and Breezy SCT049 48.2 28.4 46% 41 30.12 0.0
30 13:15 N 17 G 26 10.00 Partly Cloudy SCT048 46.4 28.4 50% 40 30.13 0.0
Date Time (cdt) Wind (mph) Vis. (mi.) Weather Sky Cond. Air Dwpt Max. Min. Relative Humidity Wind Chill (°F) Heat Index (°F) altimeter (in) sea level (mb) 1 hr 3 hr 6 hr
6 hour
Temperature (ºF) Pressure Precipitation (in)